Turner, Maine
Current Conditions -  °F | °C
As of 5:15 AM on Sunday 25 Jan 2015 (Local Time) from KLEW Reporting Station
Broken Clouds Broken Clouds  
Wind Chill: 22°   Ceiling: 3800
Heat Index: 28°   Visibility: 10mi
Dew Point: 19°   Wind: 6mph
Humidity: 69%   Direction: 200°SSW
Pressure: 29.29"   Gusts: NA
Location:  44.26°N, 70.26°W
Report Text: KLEW 251015Z AUTO 20005KT 10SM BKN038 BKN080 M02/M07 A2929 RMK AO1
Loading
Personal Weather Stations






























Interactive Weather Map New forecast layout! Learn more

10-Day Weather Forecast

Advertisements
Track Severe Weather on mobile